createdAt,value
2024-02-02T00:31:11.514Z,69.75
2024-02-02T00:34:21.444Z,69.75
2024-02-02T00:37:11.768Z,69.92
2024-02-02T00:40:05.538Z,70.06
2024-02-02T00:43:17.815Z,69.52
2024-02-02T00:46:32.695Z,69.63
2024-02-02T00:49:14.840Z,69.56
2024-02-02T00:51:52.311Z,70.24
2024-02-02T00:54:48.442Z,70.51
2024-02-02T00:57:25.286Z,70.37
2024-02-02T01:00:04.010Z,69.90
2024-02-02T01:02:44.774Z,69.78
2024-02-02T01:06:10.185Z,69.91
2024-02-02T01:09:17.095Z,69.81
2024-02-02T01:11:55.366Z,69.79
2024-02-02T01:15:24.714Z,69.74
2024-02-02T01:18:59.124Z,69.88
2024-02-02T01:21:55.433Z,69.86
2024-02-02T01:24:44.118Z,69.75
2024-02-02T01:27:53.065Z,69.76
2024-02-02T01:31:24.603Z,69.47
2024-02-02T01:34:53.598Z,69.30
2024-02-02T01:38:27.929Z,69.35
2024-02-02T01:41:01.946Z,69.46
2024-02-02T01:43:34.890Z,69.16
2024-02-02T01:46:30.631Z,69.33
2024-02-02T01:49:38.778Z,69.80
2024-02-02T01:52:39.928Z,69.67
2024-02-02T01:55:33.610Z,69.64
2024-02-02T01:58:34.603Z,69.35
2024-02-02T02:01:25.655Z,69.56
2024-02-02T02:04:34.706Z,69.62
2024-02-02T02:07:55.097Z,69.62
2024-02-02T02:10:56.547Z,69.42
2024-02-02T02:13:56.942Z,69.15
2024-02-02T02:16:56.094Z,69.15
2024-02-02T02:20:34.327Z,68.97
2024-02-02T02:24:24.558Z,69.29
2024-02-02T02:35:38.524Z,70.03
2024-02-02T02:39:27.358Z,69.96
2024-02-02T02:57:41.775Z,71.59
2024-02-02T03:01:30.662Z,72.19
2024-02-02T03:05:19.429Z,71.72
2024-02-02T03:08:51.259Z,71.89
2024-02-02T03:12:08.257Z,71.64
2024-02-02T03:40:42.641Z,71.44
2024-02-02T03:43:35.132Z,71.69
2024-02-02T03:46:14.942Z,71.92
2024-02-02T03:48:45.542Z,71.88
2024-02-02T03:51:40.063Z,71.75
2024-02-02T03:54:09.246Z,72.20
2024-02-02T03:56:44.143Z,72.02
2024-02-02T03:59:20.492Z,72.22
2024-02-02T04:01:52.869Z,72.14
2024-02-02T04:04:21.508Z,72.24
2024-02-02T04:07:05.467Z,72.06
2024-02-02T04:09:37.501Z,72.03
2024-02-02T04:12:11.778Z,71.98
2024-02-02T04:14:43.118Z,71.65
2024-02-02T04:17:12.027Z,71.43
2024-02-02T04:20:00.722Z,71.59
2024-02-02T04:22:29.316Z,71.45
2024-02-02T04:25:00.727Z,71.12
2024-02-02T04:27:31.851Z,71.39
2024-02-02T04:30:00.759Z,71.63
2024-02-02T04:32:33.792Z,71.58
2024-02-02T04:35:05.471Z,71.47
2024-02-02T04:38:15.012Z,71.45
2024-02-02T04:41:09.459Z,71.49
2024-02-02T04:44:30.261Z,72.14
2024-02-02T04:47:41.836Z,71.82
2024-02-02T04:50:16.281Z,72.48
2024-02-02T04:53:21.170Z,72.77
2024-02-02T04:56:14.886Z,72.63
2024-02-02T05:00:03.501Z,72.32
2024-02-02T05:03:21.745Z,72.14
2024-02-02T05:06:19.481Z,71.70
2024-02-02T05:08:56.753Z,71.58
2024-02-02T05:11:37.750Z,71.41
2024-02-02T05:14:37.811Z,71.45
2024-02-02T05:17:09.546Z,71.40
2024-02-02T05:19:43.982Z,71.18
2024-02-02T05:22:30.717Z,71.23
2024-02-02T05:25:04.696Z,71.08
2024-02-02T05:28:02.069Z,70.86
2024-02-02T05:30:36.131Z,70.88
2024-02-02T05:33:27.641Z,70.64
2024-02-02T05:35:55.935Z,70.32
2024-02-02T05:38:24.290Z,70.07
2024-02-02T05:41:38.132Z,69.91
2024-02-02T05:44:10.162Z,69.55
2024-02-02T05:46:38.807Z,69.40
2024-02-02T05:49:47.538Z,69.16
2024-02-02T05:52:16.430Z,69.07
2024-02-02T05:55:11.034Z,68.38
2024-02-02T05:58:06.583Z,68.17
2024-02-02T06:01:02.758Z,67.70
2024-02-02T06:03:34.217Z,67.27
2024-02-02T06:06:07.910Z,67.24
2024-02-02T06:08:36.396Z,67.27
2024-02-02T06:11:05.161Z,66.84
2024-02-02T06:13:34.592Z,66.82
2024-02-02T06:16:03.150Z,66.84
2024-02-02T06:18:31.620Z,66.04
2024-02-02T06:21:00.090Z,66.20
2024-02-02T06:23:28.761Z,66.05
2024-02-02T06:25:57.079Z,66.01
2024-02-02T06:28:25.430Z,65.78
2024-02-02T06:30:53.817Z,66.15
2024-02-02T06:33:22.305Z,65.68
2024-02-02T06:35:50.814Z,65.76
2024-02-02T06:38:19.239Z,65.63
2024-02-02T06:40:47.538Z,65.91
2024-02-02T06:43:15.970Z,65.97
2024-02-02T06:45:48.696Z,65.34
2024-02-02T06:48:17.982Z,65.58
2024-02-02T06:50:46.555Z,65.17
2024-02-02T06:53:17.088Z,65.48
2024-02-02T06:55:46.693Z,65.73
2024-02-02T06:58:38.724Z,66.04
2024-02-02T07:01:08.524Z,66.12
2024-02-02T07:03:37.991Z,65.99
2024-02-02T07:06:07.826Z,66.28
2024-02-02T07:08:36.685Z,65.62
2024-02-02T07:11:42.695Z,65.68
2024-02-02T07:14:36.023Z,65.87
2024-02-02T07:17:13.256Z,66.05
2024-02-02T07:19:43.104Z,65.64
2024-02-02T07:22:35.069Z,66.04
2024-02-02T07:25:06.312Z,66.22
2024-02-02T07:27:55.905Z,66.72
2024-02-02T07:30:49.154Z,66.67
2024-02-02T07:33:46.836Z,66.72
2024-02-02T07:36:28.791Z,67.26
2024-02-02T07:38:58.268Z,67.11
2024-02-02T07:41:28.861Z,67.18
2024-02-02T07:44:00.770Z,67.62
2024-02-02T07:46:29.902Z,67.94
2024-02-02T07:49:01.042Z,67.75
2024-02-02T07:51:29.719Z,68.13
2024-02-02T07:53:58.974Z,68.41
2024-02-02T07:56:27.382Z,68.79
2024-02-02T07:58:59.978Z,68.82
2024-02-02T08:01:32.620Z,68.78
2024-02-02T08:04:02.708Z,68.59
2024-02-02T08:06:31.814Z,68.92
2024-02-02T08:09:00.635Z,69.46
2024-02-02T08:11:36.296Z,69.82
2024-02-02T08:14:04.531Z,69.92
2024-02-02T08:16:32.768Z,70.24
2024-02-02T08:19:01.092Z,70.33
2024-02-02T08:21:29.526Z,70.60
2024-02-02T08:23:59.738Z,70.74
2024-02-02T08:26:27.956Z,70.69
2024-02-02T08:28:56.406Z,71.30
2024-02-02T08:31:24.773Z,71.18
2024-02-02T08:33:53.241Z,71.35
2024-02-02T08:36:21.895Z,71.82
2024-02-02T08:38:50.224Z,72.23
2024-02-02T08:41:19.309Z,72.07
2024-02-02T08:43:48.810Z,72.35
2024-02-02T08:46:21.011Z,72.17
2024-02-02T08:48:53.300Z,72.83
2024-02-02T08:51:47.830Z,72.88
2024-02-02T08:54:40.103Z,73.13
2024-02-02T08:57:33.177Z,73.05
2024-02-02T09:00:12.496Z,72.67
2024-02-02T09:03:06.083Z,72.37
2024-02-02T09:05:51.155Z,72.29
2024-02-02T09:08:36.596Z,72.12
2024-02-02T09:11:18.868Z,71.88
2024-02-02T09:14:01.260Z,71.80
2024-02-02T09:16:40.620Z,72.11
2024-02-02T09:19:25.442Z,72.30
2024-02-02T09:21:58.976Z,72.55
2024-02-02T09:24:42.318Z,72.42
2024-02-02T09:27:17.025Z,71.77
2024-02-02T09:29:50.197Z,71.72
2024-02-02T09:32:21.916Z,71.87
2024-02-02T09:34:50.632Z,72.14
2024-02-02T09:37:26.375Z,72.51
2024-02-02T09:39:59.093Z,72.41
2024-02-02T09:42:55.502Z,72.41
2024-02-02T09:45:49.944Z,72.04
2024-02-02T09:48:33.781Z,71.63
2024-02-02T09:51:23.513Z,71.31
2024-02-02T09:54:18.810Z,71.75
2024-02-02T09:57:27.397Z,71.84
2024-02-02T10:00:31.496Z,72.04
2024-02-02T10:03:22.691Z,71.81
2024-02-02T10:06:27.656Z,71.59
2024-02-02T10:09:35.946Z,71.52
2024-02-02T10:12:19.171Z,71.40
2024-02-02T10:15:22.348Z,71.50
2024-02-02T10:18:10.478Z,71.31
2024-02-02T10:20:47.253Z,71.93
2024-02-02T10:23:42.960Z,71.43
2024-02-02T10:26:40.697Z,70.81
2024-02-02T10:29:33.437Z,70.46
2024-02-02T10:32:20.439Z,70.63
2024-02-02T10:35:16.011Z,69.74
2024-02-02T10:37:50.507Z,70.00
2024-02-02T10:40:40.935Z,69.67
2024-02-02T10:43:35.805Z,70.18
2024-02-02T10:46:23.712Z,70.17
2024-02-02T10:49:16.841Z,70.79
2024-02-02T10:52:09.480Z,70.89
2024-02-02T10:54:57.017Z,70.45
2024-02-02T10:57:38.243Z,69.88
2024-02-02T11:00:25.378Z,70.01
2024-02-02T11:03:10.250Z,69.87
2024-02-02T11:05:51.446Z,69.46
2024-02-02T11:08:23.742Z,69.55
2024-02-02T11:11:14.008Z,69.44
2024-02-02T11:14:06.165Z,69.46
2024-02-02T11:17:08.931Z,69.40
2024-02-02T11:20:08.117Z,69.31
2024-02-02T11:22:48.155Z,69.28
2024-02-02T11:25:27.141Z,69.06
2024-02-02T11:28:10.925Z,69.31
2024-02-02T11:30:59.156Z,69.49
2024-02-02T11:34:07.773Z,69.28
2024-02-02T11:36:57.819Z,69.61
2024-02-02T11:39:52.386Z,69.58
2024-02-02T11:42:31.487Z,69.80
2024-02-02T11:45:07.089Z,69.51
2024-02-02T11:48:02.046Z,69.30
2024-02-02T11:50:46.951Z,69.05
2024-02-02T11:53:40.335Z,68.81
2024-02-02T11:56:39.426Z,68.75
2024-02-02T11:59:28.657Z,69.04
2024-02-02T12:02:32.094Z,69.05
2024-02-02T12:05:19.807Z,68.91
2024-02-02T12:08:17.989Z,68.87
2024-02-02T12:10:47.835Z,68.29
2024-02-02T12:13:29.079Z,68.63
2024-02-02T12:16:06.120Z,68.59
2024-02-02T12:18:41.943Z,68.74
2024-02-02T12:21:16.465Z,69.41
2024-02-02T12:23:48.410Z,70.04
2024-02-02T12:26:17.184Z,70.08
2024-02-02T12:28:46.122Z,70.14
2024-02-02T12:31:14.248Z,70.30
2024-02-02T12:33:43.607Z,70.47
2024-02-02T12:36:13.076Z,70.35
2024-02-02T12:38:43.013Z,70.68
2024-02-02T12:41:14.358Z,70.58
2024-02-02T12:43:47.921Z,70.40
2024-02-02T12:46:19.243Z,69.84
2024-02-02T12:48:47.771Z,70.27
2024-02-02T12:51:22.303Z,69.98
2024-02-02T12:53:51.141Z,70.52
2024-02-02T12:56:19.748Z,69.74
2024-02-02T12:58:50.878Z,70.28
2024-02-02T13:01:19.904Z,70.37
2024-02-02T13:03:50.950Z,70.56
2024-02-02T13:06:20.081Z,69.61
2024-02-02T13:08:54.349Z,69.51
2024-02-02T13:11:24.952Z,69.69
2024-02-02T13:14:05.249Z,69.65
2024-02-02T13:16:36.060Z,69.62
2024-02-02T13:19:08.493Z,69.42
2024-02-02T13:21:43.590Z,69.19
2024-02-02T13:24:19.581Z,69.37
2024-02-02T13:26:52.278Z,69.63
2024-02-02T13:29:28.054Z,69.49
2024-02-02T13:31:56.643Z,68.96
2024-02-02T13:34:25.536Z,68.66
2024-02-02T13:37:06.971Z,68.55
2024-02-02T13:39:44.303Z,68.62
2024-02-02T13:42:17.474Z,67.88
2024-02-02T13:44:49.279Z,68.24
2024-02-02T13:47:24.006Z,67.45
2024-02-02T13:50:01.164Z,67.78
2024-02-02T13:52:36.760Z,68.08
2024-02-02T13:55:14.054Z,67.95
2024-02-02T13:57:43.701Z,67.69
2024-02-02T14:00:19.119Z,67.55
2024-02-02T14:02:52.439Z,67.89
2024-02-02T14:05:24.548Z,67.65
2024-02-02T14:08:21.532Z,67.57
2024-02-02T14:11:16.296Z,67.75
2024-02-02T14:13:47.690Z,67.63
2024-02-02T14:16:20.213Z,67.92
2024-02-02T14:19:07.725Z,68.28
2024-02-02T14:21:38.890Z,68.94
2024-02-02T14:24:16.291Z,68.76
2024-02-02T14:26:53.491Z,68.51
2024-02-02T14:29:39.888Z,68.09
2024-02-02T14:32:28.632Z,68.71
2024-02-02T14:35:00.064Z,68.84
2024-02-02T14:37:33.836Z,69.56
2024-02-02T14:40:05.544Z,70.16
2024-02-02T14:42:38.927Z,70.45
2024-02-02T14:45:16.405Z,70.10
2024-02-02T14:47:45.500Z,70.33
2024-02-02T14:50:25.975Z,69.91
2024-02-02T14:52:55.068Z,69.78
2024-02-02T14:55:33.582Z,70.45
2024-02-02T14:58:05.321Z,70.66
2024-02-02T15:00:34.527Z,70.97
2024-02-02T15:03:09.346Z,70.73
2024-02-02T15:05:49.416Z,70.84
2024-02-02T15:08:18.565Z,70.83
2024-02-02T15:10:57.108Z,70.89
2024-02-02T15:13:39.181Z,70.95
2024-02-02T15:16:39.281Z,71.32
2024-02-02T15:19:27.068Z,71.13
2024-02-02T15:22:04.106Z,70.73
2024-02-02T15:25:09.303Z,70.98
2024-02-02T15:27:39.328Z,71.21
2024-02-02T15:30:31.724Z,71.37
2024-02-02T15:34:07.989Z,71.56
2024-02-02T15:37:01.851Z,72.06
2024-02-02T15:40:28.076Z,72.54
2024-02-02T15:43:24.635Z,72.62
2024-02-02T15:46:17.836Z,72.88
2024-02-02T15:49:11.784Z,72.84
2024-02-02T15:52:17.996Z,73.34
2024-02-02T15:55:35.649Z,73.48
2024-02-02T15:58:39.061Z,73.41
2024-02-02T16:01:37.300Z,73.02
2024-02-02T16:04:16.546Z,73.11
2024-02-02T16:08:02.852Z,72.66
2024-02-02T16:11:31.094Z,73.08
2024-02-02T16:14:06.317Z,73.21
2024-02-02T16:16:35.052Z,73.54
2024-02-02T16:19:06.036Z,73.44
2024-02-02T16:21:34.630Z,73.09
2024-02-02T16:24:06.883Z,73.10
2024-02-02T16:26:36.108Z,73.17
2024-02-02T16:29:07.274Z,73.03
2024-02-02T16:31:35.807Z,73.10
2024-02-02T16:34:04.518Z,73.38
2024-02-02T16:36:50.057Z,73.39
2024-02-02T16:39:18.320Z,73.42
2024-02-02T16:41:47.391Z,72.96
2024-02-02T16:44:17.070Z,72.69
2024-02-02T16:46:45.732Z,72.48
2024-02-02T16:49:14.264Z,72.67
2024-02-02T16:51:43.273Z,72.72
2024-02-02T16:54:19.292Z,72.91
2024-02-02T16:56:50.853Z,73.23
2024-02-02T16:59:22.015Z,72.96
2024-02-02T17:02:07.924Z,72.95
2024-02-02T17:04:36.545Z,72.89
2024-02-02T17:07:05.629Z,72.49
2024-02-02T17:09:39.435Z,73.02
2024-02-02T17:12:08.930Z,72.93
2024-02-02T17:14:39.770Z,73.13
2024-02-02T17:17:08.337Z,72.75
2024-02-02T17:19:41.992Z,72.64
2024-02-02T17:22:10.530Z,72.67
2024-02-02T17:24:39.284Z,72.66
2024-02-02T17:27:07.683Z,72.69
2024-02-02T17:29:40.965Z,72.84
2024-02-02T17:32:09.530Z,72.77
2024-02-02T17:34:37.944Z,73.06
2024-02-02T17:37:06.670Z,73.01
2024-02-02T17:39:42.155Z,73.00
2024-02-02T17:42:16.142Z,73.03
2024-02-02T17:44:49.434Z,72.92
2024-02-02T17:47:22.468Z,72.56
2024-02-02T17:49:55.471Z,72.81
2024-02-02T17:52:28.172Z,72.72
2024-02-02T17:54:58.066Z,72.72
2024-02-02T17:57:32.267Z,72.95
2024-02-02T18:00:25.903Z,73.18
2024-02-02T18:03:53.736Z,73.13
2024-02-02T18:06:45.141Z,73.05
2024-02-02T18:09:56.870Z,73.09
2024-02-02T18:12:38.408Z,72.88
2024-02-02T18:15:11.306Z,72.88
2024-02-02T18:17:47.299Z,73.01
2024-02-02T18:20:27.871Z,73.38
2024-02-02T18:23:01.867Z,73.35
2024-02-02T18:25:30.771Z,73.75
2024-02-02T18:28:02.062Z,73.34
2024-02-02T18:30:32.843Z,73.27
2024-02-02T18:33:00.929Z,73.19
2024-02-02T18:35:29.448Z,72.90
2024-02-02T18:37:57.503Z,73.13
2024-02-02T18:40:27.128Z,72.98
2024-02-02T18:43:01.442Z,73.13
2024-02-02T18:45:51.755Z,73.35
2024-02-02T18:48:43.862Z,73.34
2024-02-02T18:51:29.762Z,73.56
2024-02-02T18:54:13.217Z,73.54
2024-02-02T18:57:11.635Z,73.51
2024-02-02T19:00:38.407Z,73.65
2024-02-02T19:04:27.307Z,73.96
2024-02-02T19:07:36.922Z,74.25
2024-02-02T19:10:21.514Z,74.11
2024-02-02T19:13:31.588Z,74.19
2024-02-02T19:16:46.099Z,74.65
2024-02-02T19:19:19.953Z,73.70
2024-02-02T19:21:48.963Z,73.27
2024-02-02T19:24:17.624Z,73.39
2024-02-02T19:26:51.355Z,73.82
2024-02-02T19:29:23.451Z,74.12
2024-02-02T19:31:57.832Z,74.01
2024-02-02T19:34:30.563Z,74.08
2024-02-02T19:37:00.654Z,73.63
2024-02-02T19:39:29.157Z,73.69
2024-02-02T19:41:58.531Z,74.09
2024-02-02T19:44:33.530Z,74.69
2024-02-02T19:47:02.189Z,74.53
2024-02-02T19:50:11.062Z,74.30
2024-02-02T19:53:28.270Z,74.37
2024-02-02T19:57:02.454Z,74.26
2024-02-02T20:00:35.989Z,74.74
2024-02-02T20:04:04.938Z,74.67
2024-02-02T20:07:45.053Z,74.50
2024-02-02T20:10:34.278Z,74.16
2024-02-02T20:14:00.894Z,74.16
2024-02-02T20:16:52.802Z,74.27
2024-02-02T20:19:26.294Z,74.20
2024-02-02T20:21:55.143Z,74.26
2024-02-02T20:24:24.126Z,74.24
2024-02-02T20:26:55.313Z,73.93
2024-02-02T20:29:24.087Z,74.08
2024-02-02T20:31:52.374Z,73.95
2024-02-02T20:34:21.039Z,73.58
2024-02-02T20:36:49.866Z,73.74
2024-02-02T20:39:18.166Z,73.56
2024-02-02T20:41:46.639Z,74.02
2024-02-02T20:44:16.202Z,74.10
2024-02-02T20:46:45.200Z,74.24
2024-02-02T20:49:18.645Z,74.24
2024-02-02T20:51:50.328Z,74.14
2024-02-02T20:54:18.785Z,74.19
2024-02-02T20:56:47.158Z,74.61
2024-02-02T20:59:15.985Z,74.53
2024-02-02T21:01:44.475Z,74.61
2024-02-02T21:04:12.749Z,74.50
2024-02-02T21:06:43.714Z,74.60
2024-02-02T21:09:12.035Z,74.57
2024-02-02T21:11:40.613Z,74.93
2024-02-02T21:14:09.143Z,75.30
2024-02-02T21:16:37.718Z,75.76
2024-02-02T21:19:07.461Z,75.46
2024-02-02T21:21:38.011Z,75.19
2024-02-02T21:24:06.964Z,75.05
2024-02-02T21:26:35.196Z,74.98
2024-02-02T21:29:03.342Z,74.90
2024-02-02T21:31:31.436Z,74.86
2024-02-02T21:33:59.553Z,75.37
2024-02-02T21:36:28.923Z,75.15
2024-02-02T21:38:58.449Z,75.26
2024-02-02T21:41:29.662Z,75.11
2024-02-02T21:43:58.540Z,75.39
2024-02-02T21:46:27.296Z,75.59
2024-02-02T21:48:55.828Z,75.70
2024-02-02T21:51:24.512Z,76.35
2024-02-02T21:53:53.048Z,76.76
2024-02-02T21:56:22.155Z,76.59
2024-02-02T21:58:50.556Z,76.58
2024-02-02T22:01:18.650Z,76.54
2024-02-02T22:03:47.044Z,76.73
2024-02-02T22:06:15.951Z,76.59
2024-02-02T22:08:44.669Z,76.34
2024-02-02T22:11:14.329Z,76.48
2024-02-02T22:13:43.612Z,76.22
2024-02-02T22:16:11.955Z,76.39
2024-02-02T22:18:59.158Z,76.18
2024-02-02T22:21:29.091Z,76.49
2024-02-02T22:23:57.818Z,76.60
2024-02-02T22:26:26.083Z,76.69
2024-02-02T22:28:57.712Z,76.73
2024-02-02T22:31:26.157Z,76.48
2024-02-02T22:33:57.518Z,76.95
2024-02-02T22:36:26.186Z,76.92
2024-02-02T22:38:56.282Z,77.45
2024-02-02T22:41:33.061Z,77.38
2024-02-02T22:44:03.149Z,77.15
2024-02-02T22:46:32.553Z,76.98
2024-02-02T22:49:02.467Z,77.59
2024-02-02T22:51:45.014Z,77.25
2024-02-02T22:54:13.943Z,77.80
2024-02-02T22:56:42.820Z,77.54
2024-02-02T22:59:11.627Z,77.59
2024-02-02T23:01:40.236Z,77.22
2024-02-02T23:04:08.820Z,77.17
2024-02-02T23:06:37.473Z,77.27
2024-02-02T23:09:24.830Z,77.34
2024-02-02T23:11:58.997Z,77.69
2024-02-02T23:14:58.984Z,77.52
2024-02-02T23:18:17.337Z,77.51
2024-02-02T23:21:23.726Z,77.42
2024-02-02T23:24:12.276Z,77.44
2024-02-02T23:26:40.919Z,77.72
2024-02-02T23:29:09.947Z,77.84
2024-02-02T23:31:38.990Z,77.70
2024-02-02T23:34:07.541Z,77.96
2024-02-02T23:36:39.021Z,77.89
2024-02-02T23:39:07.761Z,78.02
2024-02-02T23:41:36.140Z,77.76
2024-02-02T23:44:04.538Z,78.04
2024-02-02T23:46:32.669Z,77.97
2024-02-02T23:49:03.267Z,78.21
2024-02-02T23:51:31.728Z,78.15
2024-02-02T23:53:59.883Z,78.70
2024-02-02T23:56:30.704Z,78.71
2024-02-02T23:59:01.021Z,78.90
